Time;durP1;ratioP1;P1;durP2;ratioP2;P2;SDS_P1;SDS_P2;PMS_P1;PMS_P2;Temp;Humidity;BMP_temperature;BMP_pressure;BME280_temperature;BME280_humidity;BME280_pressure;Samples;Min_cycle;Max_cycle;Signal;HPM_P1;HPM_P2
2022/07/28 00:01:49;;;;;;;7.30;1.77;;;;;;;14.50;66.84;101887.97;5011306;28;20044;-83
2022/07/28 00:04:14;;;;;;;5.25;1.75;;;;;;;14.49;67.08;101886.28;5005093;28;20121;-83
2022/07/28 00:06:39;;;;;;;4.05;1.70;;;;;;;14.41;66.93;101882.38;5000477;28;20026;-83
2022/07/28 00:09:05;;;;;;;4.90;1.80;;;;;;;14.40;67.53;101875.34;5001375;28;20067;-83
2022/07/28 00:11:30;;;;;;;2.75;1.45;;;;;;;14.41;67.60;101882.38;5003497;28;20108;-84
2022/07/28 00:13:56;;;;;;;4.68;1.67;;;;;;;14.40;67.66;101885.94;4993239;28;20031;-84
2022/07/28 00:16:22;;;;;;;7.05;1.90;;;;;;;14.37;67.54;101891.47;4996059;28;20133;-83
2022/07/28 00:18:47;;;;;;;4.80;1.70;;;;;;;14.33;67.50;101884.69;5002111;28;20065;-84
2022/07/28 00:21:13;;;;;;;7.50;1.70;;;;;;;14.31;67.47;101893.72;5004712;28;20060;-84
2022/07/28 00:23:41;;;;;;;6.22;1.98;;;;;;;14.25;67.70;101881.78;5009173;28;20025;-84
2022/07/28 00:26:11;;;;;;;3.05;1.58;;;;;;;14.26;67.64;101888.75;4991614;28;20226;-84
2022/07/28 00:28:37;;;;;;;4.90;1.77;;;;;;;14.18;67.87;101891.13;4993009;28;20015;-83
2022/07/28 00:31:04;;;;;;;8.05;1.80;;;;;;;14.14;67.90;101884.38;5003479;28;20029;-84
2022/07/28 00:33:29;;;;;;;4.13;1.77;;;;;;;14.13;68.12;101877.38;5006089;28;20141;-83
2022/07/28 00:35:54;;;;;;;6.50;2.17;;;;;;;14.11;68.33;101879.28;4995743;28;20499;-83
2022/07/28 00:38:20;;;;;;;5.13;1.83;;;;;;;14.07;68.11;101883.13;5004198;28;20392;-83
2022/07/28 00:43:31;;;;;;;6.38;1.75;;;;;;;14.04;68.82;101886.00;4994849;28;20507;-83
2022/07/28 00:45:56;;;;;;;7.85;1.67;;;;;;;14.00;68.73;101887.13;5008460;28;20022;-83
2022/07/28 00:48:21;;;;;;;3.63;1.55;;;;;;;14.04;68.60;101884.19;4997462;28;20022;-82
2022/07/28 00:50:47;;;;;;;4.47;1.67;;;;;;;14.00;68.71;101877.41;5000848;28;20428;-83
2022/07/28 00:53:12;;;;;;;4.15;1.60;;;;;;;13.97;68.45;101868.84;5006723;28;20021;-84
2022/07/28 00:55:40;;;;;;;6.82;1.90;;;;;;;13.91;68.68;101858.69;4995023;28;20532;-84
2022/07/28 00:58:06;;;;;;;6.10;2.03;;;;;;;13.90;69.21;101860.50;5007432;28;20009;-83
2022/07/28 01:00:31;;;;;;;5.20;1.75;;;;;;;13.82;69.18;101860.19;5002656;28;20034;-82
2022/07/28 01:02:56;;;;;;;3.55;1.65;;;;;;;13.81;69.20;101863.81;5003491;28;20022;-83
2022/07/28 01:05:29;;;;;;;5.65;1.90;;;;;;;13.80;69.33;101868.25;4994939;28;20393;-81
2022/07/28 01:08:05;;;;;;;6.82;2.13;;;;;;;13.74;69.23;101868.69;4998747;28;20065;-83
2022/07/28 01:10:39;;;;;;;4.43;1.83;;;;;;;13.73;70.05;101874.94;5013702;28;20504;-82
2022/07/28 01:13:33;;;;;;;4.78;1.85;;;;;;;13.73;69.55;101872.28;5014162;28;20487;-83
2022/07/28 01:16:04;;;;;;;6.43;1.90;;;;;;;13.66;69.96;101867.56;5012580;28;20091;-82
2022/07/28 01:18:44;;;;;;;5.10;2.03;;;;;;;13.63;69.99;101865.13;5012275;28;20034;-82
2022/07/28 01:21:19;;;;;;;4.45;1.83;;;;;;;13.59;70.21;101869.75;5012788;28;20030;-82
2022/07/28 01:24:09;;;;;;;12.15;2.28;;;;;;;13.55;70.40;101857.72;5012992;28;20121;-82
2022/07/28 01:26:44;;;;;;;4.05;1.88;;;;;;;13.55;70.31;101860.34;4993228;28;20085;-82
2022/07/28 01:29:41;;;;;;;5.60;2.03;;;;;;;13.52;70.34;101860.56;5007853;28;20037;-82
2022/07/28 01:32:18;;;;;;;5.18;2.33;;;;;;;13.48;70.63;101865.22;5002034;28;20045;-82
2022/07/28 01:34:53;;;;;;;5.95;2.25;;;;;;;13.42;71.06;101859.53;4992987;28;20028;-82
2022/07/28 01:37:29;;;;;;;11.90;2.22;;;;;;;13.36;71.32;101854.66;4993609;28;20037;-82
2022/07/28 01:39:58;;;;;;;4.80;2.22;;;;;;;13.39;71.36;101854.44;4996182;28;20030;-81
2022/07/28 01:42:30;;;;;;;5.93;2.72;;;;;;;13.32;71.79;101853.19;4998586;28;20496;-82
2022/07/28 01:44:58;;;;;;;6.95;2.20;;;;;;;13.25;71.80;101851.94;4992910;28;20018;-82
2022/07/28 01:47:26;;;;;;;6.88;2.17;;;;;;;13.21;72.16;101845.13;4992748;28;20042;-82
2022/07/28 01:49:56;;;;;;;7.20;2.40;;;;;;;13.13;72.44;101843.00;4995455;28;20027;-82
2022/07/28 01:52:23;;;;;;;5.28;2.45;;;;;;;13.11;72.70;101844.91;4992687;28;20542;-81
2022/07/28 01:54:50;;;;;;;6.00;2.35;;;;;;;13.11;72.60;101845.75;5000874;28;20029;-81
2022/07/28 01:57:20;;;;;;;6.35;2.30;;;;;;;13.05;72.95;101843.53;5001206;28;20030;-82
2022/07/28 01:59:47;;;;;;;6.28;2.53;;;;;;;13.03;73.02;101840.16;5006805;28;20029;-81
2022/07/28 02:02:16;;;;;;;8.43;2.60;;;;;;;13.01;73.04;101844.69;4990015;28;19999;-82
2022/07/28 02:04:43;;;;;;;8.30;2.58;;;;;;;12.99;73.40;101841.31;4997095;28;20018;-82
2022/07/28 02:07:12;;;;;;;4.78;2.28;;;;;;;12.94;73.54;101838.13;4999183;28;20030;-82
2022/07/28 02:09:38;;;;;;;7.97;2.30;;;;;;;12.91;73.68;101832.22;5006505;28;20068;-82
2022/07/28 02:12:04;;;;;;;5.35;2.58;;;;;;;12.90;73.77;101835.81;4992289;28;20505;-82
2022/07/28 02:14:31;;;;;;;6.30;2.63;;;;;;;12.94;73.44;101832.84;5007314;28;20021;-82
2022/07/28 02:17:02;;;;;;;5.90;2.30;;;;;;;12.91;73.69;101837.50;5003779;28;20050;-82
2022/07/28 02:19:29;;;;;;;5.45;2.65;;;;;;;12.88;73.73;101833.28;5004078;28;20033;-82
2022/07/28 02:21:56;;;;;;;7.65;2.33;;;;;;;12.86;73.75;101835.19;4993852;28;20026;-83
2022/07/28 02:24:27;;;;;;;5.50;2.65;;;;;;;12.82;73.77;101828.41;5004161;28;20033;-82
2022/07/28 02:26:58;;;;;;;8.45;2.80;;;;;;;12.77;74.29;101831.34;5000240;28;20042;-82
2022/07/28 02:29:25;;;;;;;6.32;2.60;;;;;;;12.80;74.35;101830.28;5004845;28;20030;-82
2022/07/28 02:31:56;;;;;;;5.63;2.58;;;;;;;12.70;74.70;101830.06;4993918;28;20126;-82
2022/07/28 02:34:25;;;;;;;6.53;2.50;;;;;;;12.69;74.43;101828.38;4995042;28;20376;-82
2022/07/28 02:36:56;;;;;;;5.00;2.50;;;;;;;12.69;74.52;101838.09;5000639;28;20018;-83
2022/07/28 02:39:25;;;;;;;6.22;2.70;;;;;;;12.66;74.99;101833.00;5001883;28;20388;-83
2022/07/28 02:42:02;;;;;;;6.03;2.60;;;;;;;12.59;74.60;101834.38;4995614;28;20018;-82
2022/07/28 02:44:36;;;;;;;10.18;3.25;;;;;;;12.60;74.75;101830.78;5002283;28;20483;-83
2022/07/28 02:47:05;;;;;;;7.95;2.80;;;;;;;12.58;74.65;101830.03;4995780;28;20507;-82
2022/07/28 02:49:33;;;;;;;7.65;2.60;;;;;;;12.57;74.66;101829.19;4999606;28;20025;-82
2022/07/28 02:52:00;;;;;;;6.60;2.88;;;;;;;12.54;74.45;101824.97;5005128;28;20030;-82
2022/07/28 02:54:28;;;;;;;6.60;2.60;;;;;;;12.48;75.04;101825.38;5003956;28;20101;-83
2022/07/28 02:56:57;;;;;;;5.78;2.63;;;;;;;12.45;74.90;101828.22;4997345;28;20484;-82
2022/07/28 02:59:23;;;;;;;8.80;2.60;;;;;;;12.47;74.63;101833.41;5013135;28;20025;-82
2022/07/28 03:01:49;;;;;;;6.85;3.05;;;;;;;12.40;74.78;101832.94;4999164;28;20037;-83
2022/07/28 03:04:16;;;;;;;5.68;2.58;;;;;;;12.36;75.07;101826.16;5012988;28;20076;-83
2022/07/28 03:06:41;;;;;;;5.50;2.70;;;;;;;12.30;74.95;101829.22;5012790;28;20472;-82
2022/07/28 03:09:11;;;;;;;14.70;2.80;;;;;;;12.30;74.97;101823.94;5012987;28;20022;-83
2022/07/28 03:11:51;;;;;;;10.80;3.40;;;;;;;12.28;74.68;101820.56;5012724;28;20535;-82
2022/07/28 03:14:17;;;;;;;5.72;2.67;;;;;;;12.29;75.04;101824.88;5007999;28;20113;-83
2022/07/28 03:16:43;;;;;;;11.25;2.90;;;;;;;12.22;74.88;101818.31;5012620;28;20032;-82
2022/07/28 03:19:11;;;;;;;6.88;2.85;;;;;;;12.18;74.90;101830.03;5012939;28;20022;-83
2022/07/28 03:21:40;;;;;;;6.53;2.70;;;;;;;12.12;74.83;101826.00;5012716;28;20026;-82
2022/07/28 03:24:09;;;;;;;5.38;2.47;;;;;;;12.13;75.30;101824.19;5012805;28;20087;-81
2022/07/28 03:26:52;;;;;;;5.97;2.50;;;;;;;12.09;75.00;101825.34;5011903;28;20096;-82
2022/07/28 03:29:21;;;;;;;5.95;2.55;;;;;;;12.09;75.45;101826.19;5002099;28;20021;-83
2022/07/28 03:31:49;;;;;;;6.13;2.85;;;;;;;12.12;74.98;101825.16;5008055;28;20069;-82
2022/07/28 03:34:14;;;;;;;5.35;2.55;;;;;;;12.04;75.50;101832.72;4996269;28;20381;-82
2022/07/28 03:36:44;;;;;;;5.13;2.42;;;;;;;12.06;75.10;101830.81;5007736;28;20094;-83
2022/07/28 03:39:11;;;;;;;4.95;2.40;;;;;;;12.00;75.19;101837.31;5004231;28;20087;-83
2022/07/28 03:41:41;;;;;;;7.05;3.03;;;;;;;11.95;75.14;101835.91;4999685;28;20415;-82
2022/07/28 03:44:09;;;;;;;4.53;2.35;;;;;;;11.95;75.60;101835.91;5009292;28;20022;-82
2022/07/28 03:46:35;;;;;;;7.32;2.53;;;;;;;11.92;75.06;101831.69;4995652;28;20022;-82
2022/07/28 03:49:00;;;;;;;8.05;2.72;;;;;;;11.88;75.06;101825.78;5004975;28;20034;-82
2022/07/28 03:51:28;;;;;;;5.32;2.20;;;;;;;11.84;75.35;101828.69;5004420;28;20574;-82
2022/07/28 03:53:54;;;;;;;5.97;2.50;;;;;;;11.82;75.52;101826.16;4997292;28;20407;-82
2022/07/28 03:56:20;;;;;;;6.65;2.65;;;;;;;11.81;75.65;101827.09;5008478;28;20029;-82
2022/07/28 03:58:45;;;;;;;5.43;2.72;;;;;;;11.79;75.46;101821.09;4997961;28;20441;-82
2022/07/28 04:01:11;;;;;;;7.18;2.72;;;;;;;11.77;75.85;101822.94;5001972;28;20101;-81
2022/07/28 04:03:37;;;;;;;7.20;2.75;;;;;;;11.76;75.76;101825.69;5005044;28;20026;-81
2022/07/28 04:06:03;;;;;;;5.45;2.63;;;;;;;11.76;75.94;101829.16;4996118;28;20502;-81
2022/07/28 04:08:28;;;;;;;8.60;2.70;;;;;;;11.80;75.93;101822.78;4998045;28;20060;-81
2022/07/28 04:10:53;;;;;;;5.50;2.67;;;;;;;11.79;75.57;101826.34;5000804;28;20018;-82
2022/07/28 04:13:19;;;;;;;4.03;2.42;;;;;;;11.79;75.57;101826.34;4998187;28;20032;-82
2022/07/28 04:15:45;;;;;;;8.43;2.90;;;;;;;11.76;75.90;101831.78;5023349;28;20054;-81
2022/07/28 04:18:10;;;;;;;5.05;2.85;;;;;;;11.76;75.50;101826.53;5007533;28;20045;-82
2022/07/28 04:20:36;;;;;;;7.50;2.50;;;;;;;11.79;75.71;101826.34;4998487;28;20021;-81
2022/07/28 04:23:01;;;;;;;7.82;2.40;;;;;;;11.81;75.40;101823.63;5000761;28;20122;-81
2022/07/28 04:25:27;;;;;;;6.85;2.83;;;;;;;11.80;75.88;101828.06;4996509;28;20050;-82
2022/07/28 04:27:53;;;;;;;8.48;2.90;;;;;;;11.89;75.38;101827.47;5005627;28;20049;-82
2022/07/28 04:30:23;;;;;;;7.20;2.63;;;;;;;11.88;75.64;101828.41;4995510;28;20468;-83
2022/07/28 04:32:51;;;;;;;7.20;2.65;;;;;;;11.90;75.31;101823.03;5006007;28;20026;-80
2022/07/28 04:35:22;;;;;;;6.35;2.60;;;;;;;11.91;75.38;101824.72;5010415;28;20026;-81
2022/07/28 04:37:48;;;;;;;8.02;2.80;;;;;;;11.86;75.67;101826.81;4994086;28;20120;-81
2022/07/28 04:40:14;;;;;;;9.85;2.85;;;;;;;11.89;75.93;101824.81;4993194;28;20113;-82
2022/07/28 04:42:40;;;;;;;6.47;2.72;;;;;;;11.89;75.85;101826.63;5003367;28;20022;-82
2022/07/28 04:45:07;;;;;;;9.93;2.97;;;;;;;11.97;75.79;101823.47;5002459;28;20454;-82
2022/07/28 04:47:33;;;;;;;9.32;3.22;;;;;;;11.99;75.41;101821.59;4998290;28;20117;-82
2022/07/28 04:49:58;;;;;;;5.35;2.50;;;;;;;11.99;75.39;101817.16;5000801;28;20132;-81
2022/07/28 04:52:25;;;;;;;6.53;2.70;;;;;;;11.98;75.68;101817.25;4991943;28;20033;-82
2022/07/28 04:54:51;;;;;;;8.40;2.90;;;;;;;11.96;75.82;101821.78;4998483;28;20026;-80
2022/07/28 04:57:16;;;;;;;6.03;2.90;;;;;;;11.98;75.79;101820.75;4996848;28;20030;-81
2022/07/28 04:59:43;;;;;;;6.80;2.80;;;;;;;12.00;75.95;101824.13;5007148;28;20479;-82
2022/07/28 05:02:11;;;;;;;5.70;3.00;;;;;;;11.98;75.81;101822.53;5007300;28;20033;-82
2022/07/28 05:04:38;;;;;;;8.32;3.10;;;;;;;12.01;76.26;101819.69;5008281;28;20375;-80
2022/07/28 05:07:04;;;;;;;11.43;3.58;;;;;;;12.01;76.35;101817.06;5010610;28;20042;-81
2022/07/28 05:09:31;;;;;;;8.77;3.15;;;;;;;12.02;76.16;101824.06;5015935;28;20030;-80
2022/07/28 05:11:57;;;;;;;7.65;3.38;;;;;;;12.08;76.19;101828.94;5006644;28;20377;-81
2022/07/28 05:14:22;;;;;;;7.47;3.25;;;;;;;12.05;76.42;101822.06;5021388;28;20077;-81
2022/07/28 05:16:47;;;;;;;7.93;3.55;;;;;;;12.16;76.73;101821.38;5015025;28;20022;-82
2022/07/28 05:19:13;;;;;;;9.05;3.45;;;;;;;12.25;76.22;101828.69;5012720;28;20022;-81
2022/07/28 05:21:38;;;;;;;10.82;3.50;;;;;;;12.25;75.64;101836.59;5021960;28;20028;-82
2022/07/28 05:24:04;;;;;;;9.65;3.25;;;;;;;12.33;76.21;101836.94;5020109;28;20077;-81
2022/07/28 05:26:31;;;;;;;10.50;3.45;;;;;;;12.40;75.31;101830.31;5009450;28;20153;-81
2022/07/28 05:28:57;;;;;;;9.07;3.05;;;;;;;12.48;75.50;101835.94;5011460;28;20093;-82
2022/07/28 05:31:23;;;;;;;6.93;3.08;;;;;;;12.50;75.27;101839.31;5020420;28;20033;-81
2022/07/28 05:33:49;;;;;;;12.57;3.40;;;;;;;12.60;75.05;101834.28;5025170;28;20104;-79
2022/07/28 05:36:14;;;;;;;12.48;3.88;;;;;;;12.67;75.08;101835.56;5000149;28;20022;-79
2022/07/28 05:38:40;;;;;;;6.05;3.38;;;;;;;12.66;75.40;101835.66;4994991;28;20033;-79
2022/07/28 05:41:05;;;;;;;8.73;3.35;;;;;;;12.73;74.99;101829.84;4994754;28;20026;-79
2022/07/28 05:43:31;;;;;;;7.28;3.30;;;;;;;12.82;74.26;101828.41;5007791;28;20022;-80
2022/07/28 05:45:56;;;;;;;8.85;3.58;;;;;;;12.90;74.19;101828.72;4997359;28;20050;-80
2022/07/28 05:48:21;;;;;;;12.43;3.30;;;;;;;12.99;74.26;101827.25;5009171;28;20364;-80
2022/07/28 05:50:50;;;;;;;8.90;3.20;;;;;;;13.13;73.83;101828.00;5006592;28;20026;-80
2022/07/28 05:53:16;;;;;;;5.32;3.10;;;;;;;13.25;73.13;101826.34;5008792;28;20400;-79
2022/07/28 05:55:42;;;;;;;8.05;3.00;;;;;;;13.28;72.69;101825.28;4998522;28;20053;-80
2022/07/28 05:58:07;;;;;;;8.32;2.90;;;;;;;13.33;72.50;101825.81;5000756;28;20040;-80
2022/07/28 06:00:33;;;;;;;8.98;3.03;;;;;;;13.36;72.72;101828.22;5009310;28;20070;-80
2022/07/28 06:03:03;;;;;;;9.63;3.90;;;;;;;13.44;72.64;101825.91;5010479;28;20057;-82
2022/07/28 06:05:29;;;;;;;5.82;3.03;;;;;;;13.52;72.38;101826.19;5010016;28;20451;-80
2022/07/28 06:07:56;;;;;;;11.40;3.30;;;;;;;13.59;72.18;101824.81;5018926;28;20032;-81
2022/07/28 06:10:24;;;;;;;5.50;2.65;;;;;;;13.64;71.85;101822.69;5018340;28;20045;-81
2022/07/28 06:12:51;;;;;;;7.10;3.13;;;;;;;13.73;71.91;101823.84;5017240;28;20033;-81
2022/07/28 06:15:21;;;;;;;6.50;2.70;;;;;;;13.78;71.69;101827.00;5020063;28;20021;-82
2022/07/28 06:17:47;;;;;;;8.27;2.88;;;;;;;13.80;71.40;101822.44;5014056;28;20070;-79
2022/07/28 06:20:13;;;;;;;13.05;3.17;;;;;;;13.83;71.08;101819.56;5027410;28;20016;-81
2022/07/28 06:22:44;;;;;;;7.93;2.70;;;;;;;13.86;70.67;101815.84;5012506;28;20026;-81
2022/07/28 06:25:17;;;;;;;7.10;2.80;;;;;;;13.90;70.80;101822.59;4997933;28;20048;-81
2022/07/28 06:27:47;;;;;;;6.25;2.50;;;;;;;13.94;70.77;101824.06;5002117;28;20447;-82
2022/07/28 06:30:13;;;;;;;6.50;2.95;;;;;;;13.98;70.22;101821.09;5006878;28;20447;-82
2022/07/28 06:32:38;;;;;;;6.43;2.92;;;;;;;13.99;70.10;101814.84;5010335;28;20026;-81
2022/07/28 06:35:05;;;;;;;7.97;2.97;;;;;;;14.10;70.14;101819.38;5018403;28;20109;-78
2022/07/28 06:37:30;;;;;;;7.03;2.92;;;;;;;14.22;70.01;101823.75;5014435;28;20033;-77
2022/07/28 06:39:55;;;;;;;9.68;2.70;;;;;;;14.35;70.24;101826.34;5015264;28;20021;-77
2022/07/28 06:42:21;;;;;;;7.10;2.58;;;;;;;14.37;69.07;101827.91;4997819;28;20030;-77
2022/07/28 06:44:46;;;;;;;9.40;3.10;;;;;;;14.39;68.43;101820.69;5009986;28;20041;-77
2022/07/28 06:47:11;;;;;;;7.75;2.55;;;;;;;14.49;68.02;101826.22;5007362;28;20081;-78
2022/07/28 06:49:36;;;;;;;7.43;2.65;;;;;;;14.55;68.37;101815.16;5002640;28;20054;-77
2022/07/28 06:52:02;;;;;;;7.45;2.50;;;;;;;14.56;67.76;101822.13;4999078;28;20022;-78
2022/07/28 06:54:27;;;;;;;8.15;2.75;;;;;;;14.61;67.77;101829.72;5011959;28;20455;-78
2022/07/28 06:56:53;;;;;;;6.47;2.47;;;;;;;14.69;67.46;101830.00;5008612;28;20037;-78
2022/07/28 06:59:19;;;;;;;7.38;2.65;;;;;;;14.70;67.09;101834.34;5006245;28;20057;-78
2022/07/28 07:01:45;;;;;;;7.40;2.58;;;;;;;14.75;66.54;101824.22;5013599;28;20026;-77
2022/07/28 07:04:10;;;;;;;8.48;2.47;;;;;;;14.88;66.74;101826.81;5014020;28;20550;-77
2022/07/28 07:06:35;;;;;;;9.00;2.38;;;;;;;14.93;66.38;101820.19;5002133;28;20045;-77
2022/07/28 07:09:01;;;;;;;6.78;2.55;;;;;;;15.04;65.89;101828.16;5004247;28;20061;-77
2022/07/28 07:11:26;;;;;;;7.95;2.75;;;;;;;15.12;66.03;101818.75;4994464;28;20109;-77
2022/07/28 07:13:53;;;;;;;6.82;2.50;;;;;;;15.28;65.40;101824.56;5006093;28;20018;-77
2022/07/28 07:16:18;;;;;;;9.70;2.13;;;;;;;15.51;64.29;101817.44;4993857;28;20018;-78
2022/07/28 07:18:44;;;;;;;6.90;2.05;;;;;;;15.92;64.31;101824.78;5005091;28;20033;-78
2022/07/28 07:21:09;;;;;;;10.23;2.55;;;;;;;16.26;62.60;101815.75;4996893;28;20433;-79
2022/07/28 07:23:34;;;;;;;6.35;2.50;;;;;;;16.40;61.35;101824.38;4990181;28;20051;-78
2022/07/28 07:26:02;;;;;;;6.90;2.13;;;;;;;16.35;60.56;101831.88;4990616;28;20468;-78
2022/07/28 07:28:27;;;;;;;8.52;2.13;;;;;;;16.41;60.42;101824.28;4994492;28;20491;-78
2022/07/28 07:30:52;;;;;;;6.97;2.20;;;;;;;16.57;60.73;101826.50;5001402;28;20027;-78
2022/07/28 07:33:18;;;;;;;7.75;2.20;;;;;;;16.62;60.97;101824.28;5001884;28;20032;-77
2022/07/28 07:35:43;;;;;;;5.47;2.00;;;;;;;16.64;60.62;101817.03;4995649;28;20080;-78
2022/07/28 07:38:09;;;;;;;9.68;2.25;;;;;;;16.69;59.51;101819.34;5009281;28;20034;-77
2022/07/28 07:40:34;;;;;;;8.10;2.13;;;;;;;16.75;59.62;101814.34;4993349;28;20022;-77
2022/07/28 07:42:59;;;;;;;8.88;2.20;;;;;;;16.56;59.54;101816.84;4992957;28;20033;-77
2022/07/28 07:45:25;;;;;;;8.75;2.22;;;;;;;16.76;59.45;101813.38;5004585;28;20033;-78
2022/07/28 07:47:50;;;;;;;6.88;2.20;;;;;;;17.06;59.00;101801.09;5005274;28;20538;-78
2022/07/28 07:50:15;;;;;;;8.77;2.40;;;;;;;17.16;58.37;101801.97;4995251;28;20475;-80
2022/07/28 07:52:41;;;;;;;6.07;2.08;;;;;;;17.27;57.68;101803.72;5011852;28;20120;-82
2022/07/28 07:55:11;;;;;;;6.40;2.10;;;;;;;17.49;57.08;101807.03;5002835;28;20030;-80
2022/07/28 07:57:36;;;;;;;7.93;2.13;;;;;;;17.52;56.83;101798.78;4993265;28;20027;-80
2022/07/28 08:00:03;;;;;;;8.75;2.22;;;;;;;17.53;56.50;101807.59;5009721;28;20396;-79
2022/07/28 08:02:28;;;;;;;8.88;2.33;;;;;;;17.62;56.86;101803.31;4999643;28;20022;-79
2022/07/28 08:04:54;;;;;;;7.43;2.03;;;;;;;17.61;56.18;101801.59;5008307;28;20026;-80
2022/07/28 08:07:19;;;;;;;3.28;1.80;;;;;;;17.90;56.62;101797.22;5000099;28;20105;-80
2022/07/28 08:09:45;;;;;;;7.28;2.03;;;;;;;18.04;55.79;101791.50;5007863;28;20156;-78
2022/07/28 08:12:12;;;;;;;9.13;2.30;;;;;;;18.04;55.61;101796.84;4993489;28;20053;-80
2022/07/28 08:14:37;;;;;;;5.68;2.03;;;;;;;18.20;54.99;101798.09;4999319;28;20026;-79
2022/07/28 08:17:03;;;;;;;6.03;1.80;;;;;;;18.24;55.16;101795.00;5000676;28;20022;-79
2022/07/28 08:19:28;;;;;;;3.95;1.80;;;;;;;18.29;54.09;101792.75;4992509;28;20528;-79
2022/07/28 08:21:54;;;;;;;5.85;1.83;;;;;;;18.43;54.51;101788.84;4995702;28;20033;-79
2022/07/28 08:24:19;;;;;;;6.57;1.95;;;;;;;18.52;53.80;101792.50;5016097;28;20037;-79
2022/07/28 08:26:44;;;;;;;7.57;1.92;;;;;;;18.48;53.53;101791.94;4999280;28;20073;-79
2022/07/28 08:29:10;;;;;;;5.47;1.90;;;;;;;18.64;54.36;101796.69;5001903;28;20089;-77
2022/07/28 08:31:35;;;;;;;4.18;1.60;;;;;;;18.79;54.13;101790.78;5000373;28;20546;-79
2022/07/28 08:34:02;;;;;;;5.32;1.88;;;;;;;18.81;53.30;101790.63;4998312;28;20147;-80
2022/07/28 08:36:27;;;;;;;8.80;1.77;;;;;;;18.97;52.63;101790.03;5006811;28;20026;-77
2022/07/28 08:38:52;;;;;;;10.00;2.25;;;;;;;19.04;52.93;101777.81;4996671;28;20026;-78
2022/07/28 08:41:55;;;;;;;6.85;2.10;;;;;;;19.45;53.23;101786.34;5004087;28;20125;-78
2022/07/28 08:44:29;;;;;;;8.10;1.60;;;;;;;19.54;51.53;101785.47;5006426;28;20388;-79
2022/07/28 08:46:56;;;;;;;4.63;1.70;;;;;;;19.48;51.90;101778.88;5011245;28;20025;-79
2022/07/28 08:49:21;;;;;;;5.20;1.60;;;;;;;19.52;51.45;101777.59;5003059;28;20053;-76
2022/07/28 08:51:48;;;;;;;5.00;1.90;;;;;;;19.59;51.19;101781.38;5003548;28;20527;-77
2022/07/28 08:54:21;;;;;;;6.00;1.80;;;;;;;19.72;50.96;101781.03;5005388;28;20042;-76
2022/07/28 08:56:47;;;;;;;5.55;2.00;;;;;;;19.87;50.66;101787.53;4990892;28;20389;-77
2022/07/28 08:59:13;;;;;;;7.20;1.77;;;;;;;19.86;50.37;101790.34;5006713;28;20026;-77
2022/07/28 09:01:39;;;;;;;4.63;1.77;;;;;;;20.04;50.76;101783.22;4992946;28;20046;-77
2022/07/28 09:04:07;;;;;;;6.32;1.83;;;;;;;20.17;50.19;101774.81;5004400;28;20021;-77
2022/07/28 09:06:33;;;;;;;7.25;1.98;;;;;;;20.31;50.23;101774.25;4993577;28;20094;-77
2022/07/28 09:08:59;;;;;;;9.57;1.75;;;;;;;20.34;49.54;101757.91;5004307;28;20508;-77
2022/07/28 09:11:27;;;;;;;11.35;2.00;;;;;;;20.30;48.86;101756.53;4991646;28;20054;-76
2022/07/28 09:13:52;;;;;;;5.63;1.67;;;;;;;20.37;49.34;101751.41;5000284;28;20022;-78
2022/07/28 09:16:18;;;;;;;9.95;2.20;;;;;;;20.28;49.28;101750.50;5005517;28;20029;-78
2022/07/28 09:18:43;;;;;;;8.13;2.35;;;;;;;20.24;48.49;101749.97;4994090;28;20030;-77
2022/07/28 09:21:13;;;;;;;6.70;1.88;;;;;;;20.34;49.28;101756.06;5000039;28;20034;-78
2022/07/28 09:23:47;;;;;;;8.50;2.28;;;;;;;20.17;49.49;101751.59;5000234;28;20403;-78
2022/07/28 09:26:14;;;;;;;4.75;2.10;;;;;;;20.30;48.87;101745.84;5009825;28;20034;-77
2022/07/28 09:28:53;;;;;;;8.95;2.13;;;;;;;20.37;49.28;101741.53;5008728;28;20108;-79
2022/07/28 09:31:21;;;;;;;6.93;1.65;;;;;;;20.60;48.63;101731.22;5004849;28;20105;-78
2022/07/28 09:33:59;;;;;;;6.85;1.90;;;;;;;20.62;48.58;101732.75;5002950;28;20022;-77
2022/07/28 09:36:26;;;;;;;7.18;1.80;;;;;;;20.68;47.91;101715.22;4999816;28;20057;-77
2022/07/28 09:38:52;;;;;;;7.57;1.83;;;;;;;21.01;48.50;101708.22;4997555;28;20037;-78
2022/07/28 09:41:20;;;;;;;7.40;2.20;;;;;;;21.14;47.52;101710.44;4995031;28;20127;-78
2022/07/28 09:43:47;;;;;;;5.68;1.60;;;;;;;21.25;46.99;101716.41;5010512;28;20037;-77
2022/07/28 09:46:15;;;;;;;5.22;2.00;;;;;;;21.27;46.90;101718.91;4994039;28;20428;-77
2022/07/28 09:48:56;;;;;;;10.40;2.00;;;;;;;21.46;46.95;101715.09;5005064;28;20064;-77
2022/07/28 09:51:24;;;;;;;5.63;1.77;;;;;;;21.41;45.95;101725.47;5000456;28;20037;-77
2022/07/28 09:53:50;;;;;;;5.03;1.55;;;;;;;21.36;45.20;101711.75;4999912;28;20100;-77
2022/07/28 09:56:16;;;;;;;9.65;2.00;;;;;;;21.37;45.97;101713.41;5008198;28;20022;-78
2022/07/28 09:58:56;;;;;;;8.15;1.70;;;;;;;21.73;46.49;101714.84;4994919;28;20032;-78
2022/07/28 10:01:22;;;;;;;4.90;1.40;;;;;;;21.95;46.00;101717.88;4999318;28;20030;-77
2022/07/28 10:03:51;;;;;;;5.53;1.67;;;;;;;21.97;44.74;101716.69;5003589;28;20025;-77
2022/07/28 10:06:25;;;;;;;4.78;1.67;;;;;;;21.84;44.10;101716.34;4993226;28;20033;-76
2022/07/28 10:08:53;;;;;;;6.93;1.95;;;;;;;21.79;44.94;101719.53;5004795;28;20105;-76
2022/07/28 10:11:23;;;;;;;5.70;1.40;;;;;;;21.82;44.51;101719.19;4997835;28;20026;-77
2022/07/28 10:13:52;;;;;;;4.68;1.50;;;;;;;21.56;43.80;101715.78;4995603;28;20440;-76
2022/07/28 10:16:19;;;;;;;6.35;1.88;;;;;;;21.61;44.50;101715.28;5005856;28;20029;-76
2022/07/28 10:18:46;;;;;;;6.28;1.88;;;;;;;21.62;44.23;101712.50;4993197;28;20061;-76
2022/07/28 10:21:14;;;;;;;4.53;1.60;;;;;;;21.62;44.12;101717.00;4998668;28;20033;-78
2022/07/28 10:23:45;;;;;;;6.25;1.38;;;;;;;21.46;44.54;101709.75;5008670;28;20499;-77
2022/07/28 10:26:11;;;;;;;4.10;1.40;;;;;;;21.64;44.45;101702.44;5010102;28;20049;-77
2022/07/28 10:28:43;;;;;;;5.97;1.70;;;;;;;21.62;43.32;101699.09;5010307;28;20021;-76
2022/07/28 10:31:10;;;;;;;4.38;1.50;;;;;;;21.67;43.46;101704.78;5008690;28;20129;-76
2022/07/28 10:33:47;;;;;;;6.22;1.60;;;;;;;21.93;43.85;101699.28;4993033;28;20102;-78
2022/07/28 10:36:13;;;;;;;6.28;1.33;;;;;;;21.98;42.86;101702.28;5005509;28;20026;-77
2022/07/28 10:38:39;;;;;;;3.55;1.35;;;;;;;22.24;42.08;101704.00;4999805;28;20032;-78
2022/07/28 10:41:07;;;;;;;8.63;1.40;;;;;;;22.20;42.70;101703.50;5007663;28;20030;-77
2022/07/28 10:43:34;;;;;;;5.75;1.52;;;;;;;22.31;42.19;101696.94;4994703;28;20018;-77
2022/07/28 10:46:00;;;;;;;5.25;1.40;;;;;;;22.36;41.82;101695.44;4998542;28;20075;-77
2022/07/28 10:48:26;;;;;;;7.13;2.03;;;;;;;22.39;41.65;101694.25;4995391;28;20022;-76
2022/07/28 10:50:55;;;;;;;8.15;2.00;;;;;;;22.37;42.51;101696.28;5009913;28;20096;-77
2022/07/28 10:53:52;;;;;;;4.05;1.48;;;;;;;22.49;43.01;101687.72;4989153;28;20028;-76
2022/07/28 10:56:35;;;;;;;7.10;1.60;;;;;;;22.48;42.91;101690.56;4999709;28;20033;-76
2022/07/28 10:59:36;;;;;;;6.93;1.50;;;;;;;22.42;42.37;101684.06;5005794;28;20033;-77
2022/07/28 11:02:01;;;;;;;6.10;1.25;;;;;;;22.55;42.07;101680.00;4993978;28;20045;-76
2022/07/28 11:04:46;;;;;;;5.53;1.30;;;;;;;22.64;41.82;101687.00;5001856;28;20026;-76
2022/07/28 11:07:13;;;;;;;6.32;1.70;;;;;;;22.54;41.52;101683.69;5008082;28;20022;-75
2022/07/28 11:09:39;;;;;;;6.93;1.50;;;;;;;22.41;41.84;101682.34;5002524;28;20477;-77
2022/07/28 11:12:05;;;;;;;4.90;1.40;;;;;;;22.46;42.19;101677.34;4999967;28;20029;-78
2022/07/28 11:14:33;;;;;;;4.40;1.33;;;;;;;22.56;40.35;101684.34;5004695;28;20057;-78
2022/07/28 11:16:58;;;;;;;4.40;1.20;;;;;;;22.49;40.88;101671.63;5009773;28;20107;-78
2022/07/28 11:19:24;;;;;;;4.03;1.48;;;;;;;22.73;41.01;101659.13;4993463;28;20081;-77
2022/07/28 11:22:20;;;;;;;6.03;1.52;;;;;;;22.78;41.36;101656.75;5012856;28;20026;-78
2022/07/28 11:25:04;;;;;;;4.15;1.17;;;;;;;22.66;40.73;101652.78;5013424;28;20061;-77
2022/07/28 11:27:42;;;;;;;6.47;1.80;;;;;;;22.76;41.36;101653.41;5011931;28;20040;-77
2022/07/28 11:30:27;;;;;;;4.25;1.40;;;;;;;22.60;41.26;101662.38;5012018;28;20030;-78
2022/07/28 11:32:56;;;;;;;3.78;1.27;;;;;;;22.93;41.11;101655.06;5005170;28;20034;-77